アディスアベバ の空港の天気 - METARとTAF

ボレ国際空港(アディスアベバ) ( HAAB / ADD ) - エチオピア アディスアベバ
飛行場実況気象(Metar)
観測時間05/28 04:00 EAT (05/28 01:00 UTC)
風向・風速西北西 2m/s
視程10km以上
天気現象
全天の8割程度の雲 雲底高度 760m
気温15℃
湿度94%
気圧1027hPa
METARHAAB 280100Z 30004KT 9999 BKN025 15/14 Q1027
過去の天気等 Google飛行場航空写真 Wunderground天気予報

過去48時間のMETAR

飛行場予報(TAF)
発表時間: 5/28 00:30 EAT (5/27 21:30 UTC)
予報対象時間: 28日3時 EAT ~ 29日9時 EAT
風向・風速南南東 5m/s
視程10km以上
全天の8割程度の雲 雲底高度 910m
全天の8割程度の雲 雲底高度 2740m
28日3時 EAT ~ 28日9時 EAT に一時的に
風向・風速北西 4m/s
TAF HAAB 272130Z 2800/2906 16010KT 9999 BKN030 BKN090
TEMPO 2800/2806 32008KT 9000M -RA/BR BKN026